sensor_id;sensor_type;location;lat;lon;timestamp;pressure;altitude;pressure_sealevel;temperature;humidity
13709;BME280;54933;51.908;7.730;2023-11-19T00:00:51;100199.97;;;21.89;64.21
13709;BME280;54933;51.908;7.730;2023-11-19T00:03:17;100204.28;;;21.90;64.67
13709;BME280;54933;51.908;7.730;2023-11-19T00:05:43;100211.13;;;21.92;64.48
13709;BME280;54933;51.908;7.730;2023-11-19T00:08:08;100210.06;;;21.93;64.36
13709;BME280;54933;51.908;7.730;2023-11-19T00:10:34;100204.41;;;21.95;64.32
13709;BME280;54933;51.908;7.730;2023-11-19T00:12:59;100203.13;;;21.97;64.09
13709;BME280;54933;51.908;7.730;2023-11-19T00:15:24;100191.25;;;21.98;63.86
13709;BME280;54933;51.908;7.730;2023-11-19T00:17:50;100201.81;;;22.00;63.93
13709;BME280;54933;51.908;7.730;2023-11-19T00:20:18;100191.59;;;22.02;63.88
13709;BME280;54933;51.908;7.730;2023-11-19T00:22:44;100201.34;;;22.03;63.91
13709;BME280;54933;51.908;7.730;2023-11-19T00:25:11;100197.59;;;22.04;64.00
13709;BME280;54933;51.908;7.730;2023-11-19T00:27:36;100196.53;;;22.05;63.97
13709;BME280;54933;51.908;7.730;2023-11-19T00:30:06;100204.41;;;22.06;63.78
13709;BME280;54933;51.908;7.730;2023-11-19T00:32:34;100186.28;;;22.07;63.77
13709;BME280;54933;51.908;7.730;2023-11-19T00:35:00;100194.16;;;22.08;63.68
13709;BME280;54933;51.908;7.730;2023-11-19T00:37:25;100184.19;;;22.09;63.51
13709;BME280;54933;51.908;7.730;2023-11-19T00:39:51;100181.47;;;22.09;63.85
13709;BME280;54933;51.908;7.730;2023-11-19T00:42:17;100170.41;;;22.10;63.88
13709;BME280;54933;51.908;7.730;2023-11-19T00:44:42;100167.47;;;22.12;63.76
13709;BME280;54933;51.908;7.730;2023-11-19T00:47:07;100150.41;;;22.11;63.59
13709;BME280;54933;51.908;7.730;2023-11-19T00:49:33;100144.75;;;22.13;63.97
13709;BME280;54933;51.908;7.730;2023-11-19T00:51:59;100144.50;;;22.14;63.70
13709;BME280;54933;51.908;7.730;2023-11-19T00:54:25;100139.91;;;22.15;63.58
13709;BME280;54933;51.908;7.730;2023-11-19T00:56:52;100133.44;;;22.16;63.47
13709;BME280;54933;51.908;7.730;2023-11-19T00:59:17;100119.91;;;22.16;63.47
13709;BME280;54933;51.908;7.730;2023-11-19T01:01:43;100128.84;;;22.16;63.65
13709;BME280;54933;51.908;7.730;2023-11-19T01:04:08;100124.28;;;22.17;63.55
13709;BME280;54933;51.908;7.730;2023-11-19T01:06:33;100123.19;;;22.18;63.49
13709;BME280;54933;51.908;7.730;2023-11-19T01:08:59;100127.56;;;22.19;63.66
13709;BME280;54933;51.908;7.730;2023-11-19T01:11:24;100126.50;;;22.20;63.46
13709;BME280;54933;51.908;7.730;2023-11-19T01:13:50;100128.38;;;22.19;63.59
13709;BME280;54933;51.908;7.730;2023-11-19T01:16:16;100119.44;;;22.19;63.48
13709;BME280;54933;51.908;7.730;2023-11-19T01:18:42;100122.72;;;22.21;63.43
13709;BME280;54933;51.908;7.730;2023-11-19T01:21:07;100131.44;;;22.23;63.40
13709;BME280;54933;51.908;7.730;2023-11-19T01:23:33;100126.00;;;22.23;63.61
13709;BME280;54933;51.908;7.730;2023-11-19T01:25:59;100123.31;;;22.23;63.38
13709;BME280;54933;51.908;7.730;2023-11-19T01:28:24;100121.44;;;22.23;63.18
13709;BME280;54933;51.908;7.730;2023-11-19T01:30:52;100123.91;;;22.25;62.93
13709;BME280;54933;51.908;7.730;2023-11-19T01:33:18;100113.91;;;22.25;63.49
13709;BME280;54933;51.908;7.730;2023-11-19T01:35:43;100122.81;;;22.26;63.54
13709;BME280;54933;51.908;7.730;2023-11-19T01:38:09;100116.38;;;22.27;63.00
13709;BME280;54933;51.908;7.730;2023-11-19T01:40:35;100100.13;;;22.27;63.36
13709;BME280;54933;51.908;7.730;2023-11-19T01:43:02;100101.75;;;22.28;63.27
13709;BME280;54933;51.908;7.730;2023-11-19T01:45:28;100092.56;;;22.29;63.27
13709;BME280;54933;51.908;7.730;2023-11-19T01:47:54;100073.63;;;22.29;63.23
13709;BME280;54933;51.908;7.730;2023-11-19T01:50:21;100073.38;;;22.30;63.02
13709;BME280;54933;51.908;7.730;2023-11-19T01:52:46;100080.69;;;22.30;63.11
13709;BME280;54933;51.908;7.730;2023-11-19T01:55:13;100070.66;;;22.30;63.33
13709;BME280;54933;51.908;7.730;2023-11-19T01:57:38;100075.03;;;22.31;63.21
13709;BME280;54933;51.908;7.730;2023-11-19T02:00:07;100067.75;;;22.32;63.30
13709;BME280;54933;51.908;7.730;2023-11-19T02:02:36;100059.63;;;22.32;62.95
13709;BME280;54933;51.908;7.730;2023-11-19T02:05:02;100054.22;;;22.32;63.06
13709;BME280;54933;51.908;7.730;2023-11-19T02:07:27;100058.53;;;22.33;62.98
13709;BME280;54933;51.908;7.730;2023-11-19T02:09:53;100034.19;;;22.33;63.29
13709;BME280;54933;51.908;7.730;2023-11-19T02:12:18;100052.06;;;22.34;63.31
13709;BME280;54933;51.908;7.730;2023-11-19T02:14:45;100053.13;;;22.33;63.01
13709;BME280;54933;51.908;7.730;2023-11-19T02:17:30;100053.72;;;22.35;63.12
13709;BME280;54933;51.908;7.730;2023-11-19T02:19:59;100055.59;;;22.34;63.20
13709;BME280;54933;51.908;7.730;2023-11-19T02:22:25;100049.94;;;22.36;63.19
13709;BME280;54933;51.908;7.730;2023-11-19T02:24:52;100037.22;;;22.36;63.07
13709;BME280;54933;51.908;7.730;2023-11-19T02:27:37;100039.09;;;22.36;62.95
13709;BME280;54933;51.908;7.730;2023-11-19T02:30:03;100042.88;;;22.35;62.98
13709;BME280;54933;51.908;7.730;2023-11-19T02:32:31;100040.75;;;22.37;63.16
13709;BME280;54933;51.908;7.730;2023-11-19T02:34:56;100046.16;;;22.37;63.09
13709;BME280;54933;51.908;7.730;2023-11-19T02:37:21;100040.75;;;22.37;62.86
13709;BME280;54933;51.908;7.730;2023-11-19T02:39:47;100046.16;;;22.37;63.00
13709;BME280;54933;51.908;7.730;2023-11-19T02:42:12;100035.31;;;22.37;62.96
13709;BME280;54933;51.908;7.730;2023-11-19T02:44:38;100033.44;;;22.37;63.13
13709;BME280;54933;51.908;7.730;2023-11-19T02:47:05;100032.63;;;22.37;62.95
13709;BME280;54933;51.908;7.730;2023-11-19T02:49:33;100033.19;;;22.39;63.06
13709;BME280;54933;51.908;7.730;2023-11-19T02:51:58;100024.28;;;22.38;62.97
13709;BME280;54933;51.908;7.730;2023-11-19T02:54:24;100000.72;;;22.39;62.82
13709;BME280;54933;51.908;7.730;2023-11-19T02:56:52;100006.13;;;22.39;63.20
13709;BME280;54933;51.908;7.730;2023-11-19T02:59:21;100000.72;;;22.39;62.84
13709;BME280;54933;51.908;7.730;2023-11-19T03:01:53;99995.31;;;22.39;62.81
13709;BME280;54933;51.908;7.730;2023-11-19T03:04:18;99982.84;;;22.38;63.06
13709;BME280;54933;51.908;7.730;2023-11-19T03:06:45;99991.56;;;22.40;62.94
13709;BME280;54933;51.908;7.730;2023-11-19T03:09:10;99996.97;;;22.40;63.03
13709;BME280;54933;51.908;7.730;2023-11-19T03:11:36;99984.47;;;22.39;62.89
13709;BME280;54933;51.908;7.730;2023-11-19T03:14:01;99975.31;;;22.40;63.13
13709;BME280;54933;51.908;7.730;2023-11-19T03:16:28;99982.34;;;22.41;63.03
13709;BME280;54933;51.908;7.730;2023-11-19T03:18:53;99988.59;;;22.41;63.12
13709;BME280;54933;51.908;7.730;2023-11-19T03:21:18;99988.59;;;22.41;63.00
13709;BME280;54933;51.908;7.730;2023-11-19T03:23:43;99994.81;;;22.42;63.20
13709;BME280;54933;51.908;7.730;2023-11-19T03:26:10;99987.53;;;22.42;63.04
13709;BME280;54933;51.908;7.730;2023-11-19T03:28:36;99987.28;;;22.44;62.88
13709;BME280;54933;51.908;7.730;2023-11-19T03:31:04;99991.84;;;22.43;63.01
13709;BME280;54933;51.908;7.730;2023-11-19T03:33:33;99983.53;;;22.45;62.80
13709;BME280;54933;51.908;7.730;2023-11-19T03:35:58;99984.81;;;22.42;63.01
13709;BME280;54933;51.908;7.730;2023-11-19T03:38:24;99989.97;;;22.44;62.97
13709;BME280;54933;51.908;7.730;2023-11-19T03:40:52;99995.16;;;22.45;62.91
13709;BME280;54933;51.908;7.730;2023-11-19T03:43:17;100002.78;;;22.32;62.95
13709;BME280;54933;51.908;7.730;2023-11-19T03:45:44;100012.34;;;22.23;63.35
13709;BME280;54933;51.908;7.730;2023-11-19T03:48:09;100012.25;;;22.18;63.19
13709;BME280;54933;51.908;7.730;2023-11-19T03:50:34;100003.00;;;22.14;63.37
13709;BME280;54933;51.908;7.730;2023-11-19T03:53:00;100022.72;;;22.14;63.35
13709;BME280;54933;51.908;7.730;2023-11-19T03:55:25;100028.38;;;22.13;63.58
13709;BME280;54933;51.908;7.730;2023-11-19T03:57:50;100026.75;;;22.12;63.91
13709;BME280;54933;51.908;7.730;2023-11-19T04:00:16;100027.81;;;22.11;63.84
13709;BME280;54933;51.908;7.730;2023-11-19T04:02:41;100026.75;;;22.12;64.16
13709;BME280;54933;51.908;7.730;2023-11-19T04:05:07;100015.94;;;22.12;64.06
13709;BME280;54933;51.908;7.730;2023-11-19T04:07:33;100005.13;;;22.12;63.93
13709;BME280;54933;51.908;7.730;2023-11-19T04:09:58;100015.69;;;22.13;64.08
13709;BME280;54933;51.908;7.730;2023-11-19T04:12:24;100018.16;;;22.15;63.98
13709;BME280;54933;51.908;7.730;2023-11-19T04:14:49;100010.88;;;22.15;63.86
13709;BME280;54933;51.908;7.730;2023-11-19T04:17:14;100011.66;;;22.16;63.98
13709;BME280;54933;51.908;7.730;2023-11-19T04:19:40;99994.63;;;22.15;63.86
13709;BME280;54933;51.908;7.730;2023-11-19T04:22:10;100007.91;;;22.17;64.06
13709;BME280;54933;51.908;7.730;2023-11-19T04:24:35;100024.94;;;22.17;63.97
13709;BME280;54933;51.908;7.730;2023-11-19T04:27:01;100025.78;;;22.18;63.92
13709;BME280;54933;51.908;7.730;2023-11-19T04:29:26;100016.63;;;22.19;63.90
13709;BME280;54933;51.908;7.730;2023-11-19T04:31:51;100013.91;;;22.19;64.24
13709;BME280;54933;51.908;7.730;2023-11-19T04:34:16;100019.31;;;22.19;63.61
13709;BME280;54933;51.908;7.730;2023-11-19T04:36:42;100027.44;;;22.19;63.77
13709;BME280;54933;51.908;7.730;2023-11-19T04:39:08;100026.38;;;22.20;63.83
13709;BME280;54933;51.908;7.730;2023-11-19T04:44:14;99999.88;;;22.22;63.84
13709;BME280;54933;51.908;7.730;2023-11-19T04:46:40;100000.13;;;22.20;63.83
13709;BME280;54933;51.908;7.730;2023-11-19T04:49:06;99994.47;;;22.22;63.75
13709;BME280;54933;51.908;7.730;2023-11-19T04:51:31;99999.88;;;22.22;63.76
13709;BME280;54933;51.908;7.730;2023-11-19T04:54:02;100013.97;;;22.24;64.14
13709;BME280;54933;51.908;7.730;2023-11-19T04:56:28;100006.09;;;22.22;63.90
13709;BME280;54933;51.908;7.730;2023-11-19T04:58:54;100019.38;;;22.24;63.86
13709;BME280;54933;51.908;7.730;2023-11-19T05:01:19;100012.34;;;22.23;63.82
13709;BME280;54933;51.908;7.730;2023-11-19T05:03:44;100016.69;;;22.24;63.48
13709;BME280;54933;51.908;7.730;2023-11-19T05:06:10;100013.97;;;22.24;63.62
13709;BME280;54933;51.908;7.730;2023-11-19T05:08:35;100019.38;;;22.24;63.70
13709;BME280;54933;51.908;7.730;2023-11-19T05:11:01;100022.69;;;22.26;63.90
13709;BME280;54933;51.908;7.730;2023-11-19T05:13:26;100034.59;;;22.25;64.02
13709;BME280;54933;51.908;7.730;2023-11-19T05:15:51;100021.88;;;22.25;63.62
13709;BME280;54933;51.908;7.730;2023-11-19T05:18:17;100022.69;;;22.26;63.52
13709;BME280;54933;51.908;7.730;2023-11-19T05:20:42;100033.25;;;22.27;63.69
13709;BME280;54933;51.908;7.730;2023-11-19T05:23:07;100030.78;;;22.26;63.72
13709;BME280;54933;51.908;7.730;2023-11-19T05:25:33;100035.97;;;22.27;64.08
13709;BME280;54933;51.908;7.730;2023-11-19T05:27:58;100045.16;;;22.26;63.77
13709;BME280;54933;51.908;7.730;2023-11-19T05:30:23;100049.50;;;22.27;63.57
13709;BME280;54933;51.908;7.730;2023-11-19T05:32:49;100046.78;;;22.27;63.71
13709;BME280;54933;51.908;7.730;2023-11-19T05:35:14;100047.63;;;22.28;63.75
13709;BME280;54933;51.908;7.730;2023-11-19T05:37:39;100028.69;;;22.28;63.86
13709;BME280;54933;51.908;7.730;2023-11-19T05:40:05;100031.13;;;22.29;63.58
13709;BME280;54933;51.908;7.730;2023-11-19T05:42:39;100048.44;;;22.28;63.76
13709;BME280;54933;51.908;7.730;2023-11-19T05:45:04;100035.72;;;22.29;63.77
13709;BME280;54933;51.908;7.730;2023-11-19T05:47:30;100043.84;;;22.29;63.63
13709;BME280;54933;51.908;7.730;2023-11-19T05:49:55;100040.09;;;22.30;63.74
13709;BME280;54933;51.908;7.730;2023-11-19T05:52:20;100033.84;;;22.29;63.66
13709;BME280;54933;51.908;7.730;2023-11-19T05:54:47;100029.25;;;22.30;63.82
13709;BME280;54933;51.908;7.730;2023-11-19T05:57:16;100041.03;;;22.24;63.63
13709;BME280;54933;51.908;7.730;2023-11-19T05:59:45;100040.88;;;22.14;63.54
13709;BME280;54933;51.908;7.730;2023-11-19T06:02:10;100048.06;;;22.08;64.00
13709;BME280;54933;51.908;7.730;2023-11-19T06:04:35;100030.44;;;22.06;64.09
13709;BME280;54933;51.908;7.730;2023-11-19T06:07:01;100034.44;;;22.03;64.05
13709;BME280;54933;51.908;7.730;2023-11-19T06:09:26;100021.16;;;22.02;64.15
13709;BME280;54933;51.908;7.730;2023-11-19T06:11:51;100048.44;;;22.00;64.53
13709;BME280;54933;51.908;7.730;2023-11-19T06:14:18;100042.78;;;22.02;64.78
13709;BME280;54933;51.908;7.730;2023-11-19T06:16:43;100045.50;;;22.02;64.24
13709;BME280;54933;51.908;7.730;2023-11-19T06:19:09;100047.38;;;22.01;64.56
13709;BME280;54933;51.908;7.730;2023-11-19T06:21:36;100049.84;;;22.03;64.54
13709;BME280;54933;51.908;7.730;2023-11-19T06:24:02;100051.97;;;22.01;64.42
13709;BME280;54933;51.908;7.730;2023-11-19T06:26:27;100056.06;;;22.03;65.09
13709;BME280;54933;51.908;7.730;2023-11-19T06:28:52;100049.84;;;22.03;64.74
13709;BME280;54933;51.908;7.730;2023-11-19T06:31:18;100059.38;;;22.05;64.79
13709;BME280;54933;51.908;7.730;2023-11-19T06:33:43;100067.25;;;22.07;64.48
13709;BME280;54933;51.908;7.730;2023-11-19T06:36:08;100061.84;;;22.07;64.47
13709;BME280;54933;51.908;7.730;2023-11-19T06:38:34;100065.13;;;22.09;64.64
13709;BME280;54933;51.908;7.730;2023-11-19T06:41:00;100070.53;;;22.09;64.34
13709;BME280;54933;51.908;7.730;2023-11-19T06:43:25;100080.28;;;22.10;64.37
13709;BME280;54933;51.908;7.730;2023-11-19T06:45:50;100082.75;;;22.11;64.62
13709;BME280;54933;51.908;7.730;2023-11-19T06:48:16;100087.34;;;22.11;64.45
13709;BME280;54933;51.908;7.730;2023-11-19T06:50:41;100093.31;;;22.13;64.15
13709;BME280;54933;51.908;7.730;2023-11-19T06:53:06;100099.56;;;22.13;64.23
13709;BME280;54933;51.908;7.730;2023-11-19T06:55:35;100098.75;;;22.13;64.12
13709;BME280;54933;51.908;7.730;2023-11-19T06:58:00;100092.28;;;22.14;64.42
13709;BME280;54933;51.908;7.730;2023-11-19T07:00:27;100088.50;;;22.15;64.37
13709;BME280;54933;51.908;7.730;2023-11-19T07:02:52;100092.03;;;22.15;64.29
13709;BME280;54933;51.908;7.730;2023-11-19T07:05:18;100097.47;;;22.15;63.98
13709;BME280;54933;51.908;7.730;2023-11-19T07:07:44;100098.25;;;22.16;64.65
13709;BME280;54933;51.908;7.730;2023-11-19T07:10:11;100092.03;;;22.15;63.98
13709;BME280;54933;51.908;7.730;2023-11-19T07:12:37;100096.91;;;22.02;64.38
13709;BME280;54933;51.908;7.730;2023-11-19T07:15:02;100102.09;;;21.92;64.51
13709;BME280;54933;51.908;7.730;2023-11-19T07:17:30;100104.69;;;21.87;65.06
13709;BME280;54933;51.908;7.730;2023-11-19T07:19:55;100100.59;;;21.84;64.80
13709;BME280;54933;51.908;7.730;2023-11-19T07:22:20;100099.75;;;21.84;65.18
13709;BME280;54933;51.908;7.730;2023-11-19T07:24:45;100092.72;;;21.83;65.15
13709;BME280;54933;51.908;7.730;2023-11-19T07:27:11;100100.84;;;21.83;65.33
13709;BME280;54933;51.908;7.730;2023-11-19T07:29:37;100108.94;;;21.83;65.57
13709;BME280;54933;51.908;7.730;2023-11-19T07:32:02;100119.78;;;21.83;65.42
13709;BME280;54933;51.908;7.730;2023-11-19T07:34:28;100120.13;;;21.86;65.36
13709;BME280;54933;51.908;7.730;2023-11-19T07:36:54;100117.41;;;21.86;65.80
13709;BME280;54933;51.908;7.730;2023-11-19T07:39:22;100122.59;;;21.88;65.47
13709;BME280;54933;51.908;7.730;2023-11-19T07:41:47;100123.16;;;21.90;65.39
13709;BME280;54933;51.908;7.730;2023-11-19T07:44:13;100120.44;;;21.90;65.36
13709;BME280;54933;51.908;7.730;2023-11-19T07:46:38;100127.50;;;21.91;65.42
13709;BME280;54933;51.908;7.730;2023-11-19T07:49:03;100131.03;;;21.91;65.51
13709;BME280;54933;51.908;7.730;2023-11-19T07:51:28;100127.50;;;21.91;65.42
13709;BME280;54933;51.908;7.730;2023-11-19T07:53:54;100129.16;;;21.92;65.42
13709;BME280;54933;51.908;7.730;2023-11-19T07:56:19;100136.22;;;21.93;65.32
13709;BME280;54933;51.908;7.730;2023-11-19T07:58:44;100144.09;;;21.94;65.28
13709;BME280;54933;51.908;7.730;2023-11-19T08:01:09;100144.34;;;21.93;65.33
13709;BME280;54933;51.908;7.730;2023-11-19T08:03:35;100143.84;;;21.96;65.10
13709;BME280;54933;51.908;7.730;2023-11-19T08:06:00;100150.19;;;21.90;65.25
13709;BME280;54933;51.908;7.730;2023-11-19T08:08:26;100150.69;;;21.87;65.40
13709;BME280;54933;51.908;7.730;2023-11-19T08:10:51;100149.03;;;21.86;65.39
13709;BME280;54933;51.908;7.730;2023-11-19T08:13:18;100145.25;;;21.87;65.89
13709;BME280;54933;51.908;7.730;2023-11-19T08:15:43;100151.75;;;21.86;66.22
13709;BME280;54933;51.908;7.730;2023-11-19T08:18:09;100144.91;;;21.83;66.52
13709;BME280;54933;51.908;7.730;2023-11-19T08:20:34;100155.63;;;21.78;66.20
13709;BME280;54933;51.908;7.730;2023-11-19T08:23:00;100165.16;;;21.81;66.78
13709;BME280;54933;51.908;7.730;2023-11-19T08:25:25;100160.09;;;21.84;67.05
13709;BME280;54933;51.908;7.730;2023-11-19T08:27:50;100157.75;;;21.88;67.41
13709;BME280;54933;51.908;7.730;2023-11-19T08:30:15;100159.72;;;21.92;67.44
13709;BME280;54933;51.908;7.730;2023-11-19T08:32:41;100167.38;;;21.95;67.56
13709;BME280;54933;51.908;7.730;2023-11-19T08:35:06;100156.91;;;21.99;67.65
13709;BME280;54933;51.908;7.730;2023-11-19T08:37:32;100174.75;;;22.00;67.86
13709;BME280;54933;51.908;7.730;2023-11-19T08:39:57;100163.47;;;22.03;67.76
13709;BME280;54933;51.908;7.730;2023-11-19T08:42:22;100164.88;;;22.05;67.58
13709;BME280;54933;51.908;7.730;2023-11-19T08:44:51;100168.44;;;22.06;67.30
13709;BME280;54933;51.908;7.730;2023-11-19T08:47:19;100167.94;;;22.09;67.23
13709;BME280;54933;51.908;7.730;2023-11-19T08:49:44;100180.41;;;22.10;67.44
13709;BME280;54933;51.908;7.730;2023-11-19T08:52:10;100183.69;;;22.12;67.40
13709;BME280;54933;51.908;7.730;2023-11-19T08:54:36;100173.47;;;22.14;67.00
13709;BME280;54933;51.908;7.730;2023-11-19T08:57:01;100177.81;;;22.15;67.39
13709;BME280;54933;51.908;7.730;2023-11-19T08:59:28;100182.16;;;22.16;67.61
13709;BME280;54933;51.908;7.730;2023-11-19T09:01:53;100177.56;;;22.16;67.23
13709;BME280;54933;51.908;7.730;2023-11-19T09:04:18;100185.44;;;22.18;66.94
13709;BME280;54933;51.908;7.730;2023-11-19T09:06:47;100179.00;;;22.19;66.86
13709;BME280;54933;51.908;7.730;2023-11-19T09:09:12;100172.50;;;22.20;66.90
13709;BME280;54933;51.908;7.730;2023-11-19T09:11:37;100169.78;;;22.20;66.73
13709;BME280;54933;51.908;7.730;2023-11-19T09:14:03;100177.69;;;22.21;66.86
13709;BME280;54933;51.908;7.730;2023-11-19T09:16:29;100183.91;;;22.22;66.33
13709;BME280;54933;51.908;7.730;2023-11-19T09:18:54;100187.44;;;22.22;66.54
13709;BME280;54933;51.908;7.730;2023-11-19T09:21:20;100190.97;;;22.23;66.45
13709;BME280;54933;51.908;7.730;2023-11-19T09:23:45;100179.06;;;22.24;66.52
13709;BME280;54933;51.908;7.730;2023-11-19T09:26:13;100186.72;;;22.27;66.25
13709;BME280;54933;51.908;7.730;2023-11-19T09:28:38;100181.31;;;22.27;66.43
13709;BME280;54933;51.908;7.730;2023-11-19T09:31:13;100191.31;;;22.26;66.16
13709;BME280;54933;51.908;7.730;2023-11-19T09:33:38;100189.69;;;22.25;66.38
13709;BME280;54933;51.908;7.730;2023-11-19T09:36:03;100190.47;;;22.26;66.07
13709;BME280;54933;51.908;7.730;2023-11-19T09:38:29;100185.06;;;22.26;66.45
13709;BME280;54933;51.908;7.730;2023-11-19T09:40:54;100190.25;;;22.27;66.33
13709;BME280;54933;51.908;7.730;2023-11-19T09:43:19;100186.50;;;22.28;66.22
13709;BME280;54933;51.908;7.730;2023-11-19T09:45:49;100186.16;;;22.25;66.15
13709;BME280;54933;51.908;7.730;2023-11-19T09:48:18;100184.97;;;22.09;66.40
13709;BME280;54933;51.908;7.730;2023-11-19T09:50:46;100181.00;;;22.00;66.73
13709;BME280;54933;51.908;7.730;2023-11-19T09:53:12;100180.53;;;21.92;66.56
13709;BME280;54933;51.908;7.730;2023-11-19T09:55:37;100183.72;;;21.89;66.63
13709;BME280;54933;51.908;7.730;2023-11-19T09:58:03;100179.84;;;21.85;66.96
13709;BME280;54933;51.908;7.730;2023-11-19T10:00:29;100177.13;;;21.85;67.27
13709;BME280;54933;51.908;7.730;2023-11-19T10:02:55;100171.16;;;21.83;67.34
13709;BME280;54933;51.908;7.730;2023-11-19T10:05:23;100173.88;;;21.83;67.42
13709;BME280;54933;51.908;7.730;2023-11-19T10:07:49;100173.03;;;21.82;67.83
13709;BME280;54933;51.908;7.730;2023-11-19T10:10:15;100172.78;;;21.84;67.67
13709;BME280;54933;51.908;7.730;2023-11-19T10:12:44;100163.59;;;21.85;67.92
13709;BME280;54933;51.908;7.730;2023-11-19T10:15:17;100164.69;;;21.84;67.69
13709;BME280;54933;51.908;7.730;2023-11-19T10:17:44;100174.34;;;21.80;68.16
13709;BME280;54933;51.908;7.730;2023-11-19T10:20:10;100171.84;;;21.78;67.64
13709;BME280;54933;51.908;7.730;2023-11-19T10:22:37;100168.34;;;21.78;68.08
13709;BME280;54933;51.908;7.730;2023-11-19T10:25:03;100158.56;;;21.77;67.99
13709;BME280;54933;51.908;7.730;2023-11-19T10:27:28;100168.19;;;21.73;68.00
13709;BME280;54933;51.908;7.730;2023-11-19T10:29:54;100167.72;;;21.76;68.13
13709;BME280;54933;51.908;7.730;2023-11-19T10:32:19;100163.97;;;21.77;68.10
13709;BME280;54933;51.908;7.730;2023-11-19T10:34:44;100161.25;;;21.77;68.18
13709;BME280;54933;51.908;7.730;2023-11-19T10:37:27;100169.72;;;21.80;68.14
13709;BME280;54933;51.908;7.730;2023-11-19T10:39:53;100158.66;;;21.82;67.90
13709;BME280;54933;51.908;7.730;2023-11-19T10:42:22;100152.22;;;21.83;68.26
13709;BME280;54933;51.908;7.730;2023-11-19T10:44:47;100163.41;;;21.86;67.88
13709;BME280;54933;51.908;7.730;2023-11-19T10:47:18;100162.09;;;21.89;67.96
13709;BME280;54933;51.908;7.730;2023-11-19T10:49:44;100164.56;;;21.90;67.90
13709;BME280;54933;51.908;7.730;2023-11-19T10:52:11;100162.09;;;21.89;68.05
13709;BME280;54933;51.908;7.730;2023-11-19T10:54:39;100162.69;;;21.91;67.80
13709;BME280;54933;51.908;7.730;2023-11-19T10:57:09;100157.88;;;21.93;67.79
13709;BME280;54933;51.908;7.730;2023-11-19T10:59:37;100157.38;;;21.96;67.61
13709;BME280;54933;51.908;7.730;2023-11-19T11:02:06;100149.03;;;21.97;67.57
13709;BME280;54933;51.908;7.730;2023-11-19T11:04:39;100140.66;;;21.99;67.62
13709;BME280;54933;51.908;7.730;2023-11-19T11:07:05;100148.31;;;22.02;67.53
13709;BME280;54933;51.908;7.730;2023-11-19T11:09:31;100136.41;;;22.03;67.49
13709;BME280;54933;51.908;7.730;2023-11-19T11:11:57;100156.78;;;22.05;67.51
13709;BME280;54933;51.908;7.730;2023-11-19T11:14:24;100137.59;;;22.07;67.37
13709;BME280;54933;51.908;7.730;2023-11-19T11:16:51;100147.94;;;22.10;67.26
13709;BME280;54933;51.908;7.730;2023-11-19T11:19:18;100160.38;;;22.11;67.13
13709;BME280;54933;51.908;7.730;2023-11-19T11:21:47;100142.03;;;22.13;67.18
13709;BME280;54933;51.908;7.730;2023-11-19T11:30:52;100142.16;;;22.18;66.81
13709;BME280;54933;51.908;7.730;2023-11-19T11:36:19;100147.06;;;22.21;66.82
13709;BME280;54933;51.908;7.730;2023-11-19T11:38:47;100145.69;;;22.18;67.08
13709;BME280;54933;51.908;7.730;2023-11-19T11:41:21;100139.09;;;22.14;66.77
13709;BME280;54933;51.908;7.730;2023-11-19T11:43:49;100142.03;;;22.13;66.80
13709;BME280;54933;51.908;7.730;2023-11-19T11:49:07;100136.63;;;22.13;66.99
13709;BME280;54933;51.908;7.730;2023-11-19T11:54:30;100138.28;;;22.14;67.03
13709;BME280;54933;51.908;7.730;2023-11-19T12:02:03;100124.53;;;22.15;67.34
13709;BME280;54933;51.908;7.730;2023-11-19T12:04:29;100134.25;;;22.16;66.94
13709;BME280;54933;51.908;7.730;2023-11-19T12:07:08;100125.56;;;22.14;67.38
13709;BME280;54933;51.908;7.730;2023-11-19T12:09:40;100130.16;;;22.14;67.36
13709;BME280;54933;51.908;7.730;2023-11-19T12:20:06;100117.56;;;22.08;67.76
13709;BME280;54933;51.908;7.730;2023-11-19T12:22:35;100108.41;;;22.09;67.81
13709;BME280;54933;51.908;7.730;2023-11-19T12:25:02;100122.50;;;22.11;67.93
13709;BME280;54933;51.908;7.730;2023-11-19T12:27:27;100110.88;;;22.10;68.08
13709;BME280;54933;51.908;7.730;2023-11-19T12:29:53;100113.59;;;22.10;67.59
13709;BME280;54933;51.908;7.730;2023-11-19T12:32:19;100102.53;;;22.12;67.60
13709;BME280;54933;51.908;7.730;2023-11-19T12:34:45;100101.19;;;22.14;67.67
13709;BME280;54933;51.908;7.730;2023-11-19T12:37:10;100103.66;;;22.16;67.65
13709;BME280;54933;51.908;7.730;2023-11-19T12:39:36;100089.38;;;22.04;67.84
13709;BME280;54933;51.908;7.730;2023-11-19T12:42:01;100111.50;;;22.01;68.04
13709;BME280;54933;51.908;7.730;2023-11-19T12:44:26;100104.31;;;21.95;68.06
13709;BME280;54933;51.908;7.730;2023-11-19T12:49:26;100099.75;;;21.84;68.56
13709;BME280;54933;51.908;7.730;2023-11-19T12:51:52;100108.94;;;21.83;68.94
13709;BME280;54933;51.908;7.730;2023-11-19T12:54:17;100105.66;;;21.81;69.24
13709;BME280;54933;51.908;7.730;2023-11-19T12:56:52;100097.06;;;21.84;69.54
13709;BME280;54933;51.908;7.730;2023-11-19T12:59:18;100092.72;;;21.83;69.72
13709;BME280;54933;51.908;7.730;2023-11-19T13:01:54;100097.31;;;21.82;70.04
13709;BME280;54933;51.908;7.730;2023-11-19T13:04:20;100089.44;;;21.81;69.96
13709;BME280;54933;51.908;7.730;2023-11-19T13:06:45;100092.13;;;21.81;69.96
13709;BME280;54933;51.908;7.730;2023-11-19T13:09:24;100084.59;;;21.83;69.99
13709;BME280;54933;51.908;7.730;2023-11-19T13:11:50;100072.72;;;21.84;70.51
13709;BME280;54933;51.908;7.730;2023-11-19T13:14:15;100083.53;;;21.84;70.23
13709;BME280;54933;51.908;7.730;2023-11-19T13:16:41;100081.41;;;21.86;70.17
13709;BME280;54933;51.908;7.730;2023-11-19T13:19:07;100080.84;;;21.84;70.28